Time;durP1;ratioP1;P1;durP2;ratioP2;P2;SDS_P1;SDS_P2;PMS_P1;PMS_P2;Temp;Humidity;BMP_temperature;BMP_pressure;BME280_temperature;BME280_humidity;BME280_pressure;Samples;Min_cycle;Max_cycle;Signal;HPM_P1;HPM_P2
2020/12/09 00:01:41;;;;;;;1.50;1.40;;;;;;;22.42;30.19;100701.00;5041650;27;97356;-47
2020/12/09 00:04:06;;;;;;;1.70;1.52;;;;;;;22.43;29.99;100705.41;5041192;27;101478;-47
2020/12/09 00:06:36;;;;;;;1.73;1.27;;;;;;;22.43;30.02;100692.13;5038035;27;96694;-48
2020/12/09 00:09:09;;;;;;;1.60;1.40;;;;;;;22.42;29.90;100696.59;5039625;27;110499;-48
2020/12/09 00:11:35;;;;;;;1.40;1.30;;;;;;;22.42;29.96;100707.22;5040630;27;97229;-47
2020/12/09 00:14:00;;;;;;;1.58;1.30;;;;;;;22.41;29.93;100702.81;5036715;27;101425;-47
2020/12/09 00:16:26;;;;;;;3.47;1.67;;;;;;;22.42;29.93;100712.53;5037819;27;97532;-47
2020/12/09 00:18:52;;;;;;;1.40;1.30;;;;;;;22.42;30.17;100715.19;5042127;27;126736;-47
2020/12/09 00:21:19;;;;;;;1.20;1.00;;;;;;;22.43;30.24;100711.59;5034233;27;97725;-47
2020/12/09 00:23:44;;;;;;;2.20;1.33;;;;;;;22.43;29.97;100718.69;5039531;27;96802;-47
2020/12/09 00:26:10;;;;;;;1.60;1.50;;;;;;;22.42;30.19;100715.19;5040889;27;116622;-47
2020/12/09 00:28:35;;;;;;;1.40;1.20;;;;;;;22.43;29.97;100718.69;5039765;27;97698;-47
2020/12/09 00:31:01;;;;;;;1.58;1.30;;;;;;;22.43;30.06;100726.69;5038557;27;127771;-47
2020/12/09 00:33:26;;;;;;;1.35;1.20;;;;;;;22.43;30.23;100722.22;5042448;27;115164;-47
2020/12/09 00:35:52;;;;;;;1.70;1.60;;;;;;;22.42;29.95;100720.50;5038236;27;96775;-47
2020/12/09 00:38:17;;;;;;;1.58;1.10;;;;;;;22.44;30.21;100725.72;5018945;27;126968;-48
2020/12/09 00:40:44;;;;;;;1.33;1.23;;;;;;;22.43;30.33;100726.69;5035600;27;113404;-47
2020/12/09 00:43:10;;;;;;;1.40;1.30;;;;;;;22.43;29.97;100726.69;5038630;27;96748;-48
2020/12/09 00:45:35;;;;;;;2.03;1.63;;;;;;;22.43;30.10;100721.34;5004834;27;96941;-47
2020/12/09 00:48:01;;;;;;;1.40;1.30;;;;;;;22.44;29.88;100723.06;5017971;27;97753;-48
2020/12/09 00:50:27;;;;;;;1.40;1.17;;;;;;;22.44;30.29;100723.06;5036119;27;98291;-47
2020/12/09 00:52:59;;;;;;;1.57;1.37;;;;;;;22.43;29.90;100713.38;5035876;27;96837;-48
2020/12/09 00:55:25;;;;;;;1.40;1.25;;;;;;;22.45;30.17;100723.97;5037286;27;97007;-48
2020/12/09 00:57:52;;;;;;;1.60;1.20;;;;;;;22.43;30.14;100719.56;5037060;27;97794;-48
2020/12/09 01:00:18;;;;;;;1.70;1.30;;;;;;;22.44;30.25;100723.06;5035855;27;97498;-48
2020/12/09 01:02:49;;;;;;;1.42;1.20;;;;;;;22.45;30.17;100722.16;5023413;27;97210;-48
2020/12/09 01:05:16;;;;;;;1.50;1.40;;;;;;;22.45;30.12;100716.00;5034875;27;96943;-48
2020/12/09 01:07:43;;;;;;;1.55;1.25;;;;;;;22.45;29.86;100724.81;5034995;27;116601;-47
2020/12/09 01:10:08;;;;;;;1.80;1.50;;;;;;;22.44;30.27;100728.38;5035979;27;99498;-48
2020/12/09 01:12:34;;;;;;;1.38;1.17;;;;;;;22.46;30.16;100723.91;5039943;27;96795;-47
2020/12/09 01:14:59;;;;;;;1.50;1.38;;;;;;;22.45;30.05;100723.97;5040832;27;104539;-48
2020/12/09 01:17:25;;;;;;;1.50;1.30;;;;;;;22.46;30.27;100736.31;5033596;27;103654;-47
2020/12/09 01:19:50;;;;;;;1.92;1.40;;;;;;;22.46;30.24;100726.56;5036916;27;127049;-47
2020/12/09 01:22:16;;;;;;;1.38;1.25;;;;;;;22.47;30.14;100730.06;5037947;27;96873;-48
2020/12/09 01:24:41;;;;;;;2.13;1.40;;;;;;;22.46;30.11;100731.88;5041821;27;116711;-47
2020/12/09 01:27:07;;;;;;;1.73;1.35;;;;;;;22.46;30.01;100737.19;5039625;27;97399;-47
2020/12/09 01:29:32;;;;;;;1.48;1.17;;;;;;;22.46;30.26;100739.84;5044999;27;97426;-47
2020/12/09 01:31:59;;;;;;;1.20;1.10;;;;;;;22.46;29.95;100745.16;5044203;27;106091;-48
2020/12/09 01:34:25;;;;;;;1.55;1.25;;;;;;;22.47;30.16;100740.72;5038332;27;98388;-47
2020/12/09 01:36:51;;;;;;;1.50;1.40;;;;;;;22.47;30.03;100744.22;5041781;27;97507;-47
2020/12/09 01:39:16;;;;;;;1.80;1.35;;;;;;;22.46;29.88;100746.94;5043014;27;97180;-48
2020/12/09 01:41:42;;;;;;;1.70;1.25;;;;;;;22.47;30.35;100748.69;5041460;27;96881;-47
2020/12/09 01:44:07;;;;;;;1.83;1.45;;;;;;;22.47;30.29;100754.84;5038510;27;97120;-47
2020/12/09 01:46:33;;;;;;;1.30;1.20;;;;;;;22.47;30.04;100759.31;5043613;27;123671;-47
2020/12/09 01:48:59;;;;;;;1.50;1.20;;;;;;;22.47;30.32;100760.16;5040282;27;97245;-47
2020/12/09 01:51:25;;;;;;;1.73;1.30;;;;;;;22.48;30.22;100753.06;5039659;27;118051;-47
2020/12/09 01:53:54;;;;;;;1.63;1.50;;;;;;;22.48;30.14;100747.75;5040343;27;96884;-47
2020/12/09 01:56:20;;;;;;;1.70;1.33;;;;;;;22.47;30.34;100749.53;5041376;27;97528;-47
2020/12/09 01:58:47;;;;;;;1.63;1.40;;;;;;;22.47;29.92;100757.50;5039090;27;117137;-47
2020/12/09 02:01:12;;;;;;;1.40;1.30;;;;;;;22.47;30.28;100760.16;5041222;27;106108;-47
2020/12/09 02:03:38;;;;;;;1.55;1.40;;;;;;;22.49;30.29;100765.44;5041787;27;109583;-47
2020/12/09 02:06:04;;;;;;;1.40;1.13;;;;;;;22.48;30.20;100759.25;5040345;27;125736;-47
2020/12/09 02:08:30;;;;;;;1.58;1.40;;;;;;;22.48;30.23;100764.56;5042055;27;97310;-47
2020/12/09 02:11:01;;;;;;;1.50;1.25;;;;;;;22.48;30.04;100761.91;5004906;27;101299;-47
2020/12/09 02:13:27;;;;;;;1.40;1.20;;;;;;;22.48;29.89;100761.91;5043186;27;100707;-47
2020/12/09 02:15:52;;;;;;;1.70;1.60;;;;;;;22.49;30.09;100760.97;5040965;27;116617;-48
2020/12/09 02:18:18;;;;;;;1.35;1.20;;;;;;;22.48;29.97;100756.59;5036751;27;97170;-47
2020/12/09 02:20:44;;;;;;;1.45;1.35;;;;;;;22.48;30.33;100759.25;5043816;27;96974;-47
2020/12/09 02:23:09;;;;;;;1.80;1.50;;;;;;;22.49;30.44;100757.47;5037074;27;117253;-48
2020/12/09 02:25:35;;;;;;;1.50;1.38;;;;;;;22.49;30.32;100757.47;5037768;27;101459;-48
2020/12/09 02:28:00;;;;;;;1.83;1.17;;;;;;;22.48;30.22;100753.06;5037392;27;126838;-47
2020/12/09 02:30:25;;;;;;;1.42;1.30;;;;;;;22.48;30.28;100756.59;5040822;27;105381;-47
2020/12/09 02:32:51;;;;;;;1.42;1.20;;;;;;;22.48;30.34;100761.91;5040108;27;98365;-48
2020/12/09 02:35:16;;;;;;;1.50;1.30;;;;;;;22.49;29.99;100762.78;5036676;27;127068;-47
2020/12/09 02:37:42;;;;;;;1.50;1.40;;;;;;;22.48;30.28;100769.00;5033740;27;126637;-47
2020/12/09 02:40:07;;;;;;;2.03;1.20;;;;;;;22.48;29.97;100763.69;5040533;27;96638;-47
2020/12/09 02:42:33;;;;;;;1.50;1.33;;;;;;;22.48;30.36;100764.56;5044470;27;97160;-47
2020/12/09 02:44:58;;;;;;;1.55;1.30;;;;;;;22.48;30.19;100769.00;5040399;27;119526;-47
2020/12/09 02:47:24;;;;;;;1.50;1.40;;;;;;;22.48;30.26;100758.38;5039316;27;97238;-47
2020/12/09 02:49:49;;;;;;;1.40;1.30;;;;;;;22.47;29.96;100765.50;5039060;27;117028;-47
2020/12/09 02:52:15;;;;;;;1.58;1.48;;;;;;;22.49;30.08;100768.09;5038421;27;116704;-47
2020/12/09 02:54:41;;;;;;;1.38;1.20;;;;;;;22.48;29.85;100767.22;5036723;27;126145;-48
2020/12/09 02:57:07;;;;;;;1.77;1.42;;;;;;;22.49;30.08;100760.13;5043183;27;124037;-48
2020/12/09 02:59:32;;;;;;;1.40;1.30;;;;;;;22.49;29.97;100762.78;5041459;27;96892;-48
2020/12/09 03:01:58;;;;;;;1.58;1.30;;;;;;;22.49;30.38;100760.13;5040187;27;116608;-47
2020/12/09 03:04:23;;;;;;;1.70;1.40;;;;;;;22.49;30.06;100760.97;5039113;27;97563;-47
2020/12/09 03:06:49;;;;;;;1.75;1.50;;;;;;;22.49;30.15;100763.63;5041236;27;127014;-48
2020/12/09 03:09:14;;;;;;;1.50;1.40;;;;;;;22.49;30.06;100766.28;5034337;27;117004;-47
2020/12/09 03:11:40;;;;;;;1.48;1.33;;;;;;;22.50;29.83;100770.69;5037652;27;96958;-47
2020/12/09 03:14:05;;;;;;;1.50;1.20;;;;;;;22.50;30.07;100778.66;5039253;27;127533;-47
2020/12/09 03:16:31;;;;;;;1.55;1.35;;;;;;;22.50;30.24;100776.00;5037919;27;106846;-47
2020/12/09 03:18:56;;;;;;;1.58;1.40;;;;;;;22.50;29.94;100772.50;5020913;27;117194;-47
2020/12/09 03:21:22;;;;;;;1.67;1.58;;;;;;;22.50;30.01;100776.00;5037697;27;116379;-47
2020/12/09 03:23:47;;;;;;;1.90;1.30;;;;;;;22.50;30.58;100773.34;5036784;27;97466;-48
2020/12/09 03:26:13;;;;;;;1.77;1.60;;;;;;;22.50;29.97;100778.66;5038372;27;97269;-48
2020/12/09 03:28:38;;;;;;;1.23;1.13;;;;;;;22.51;30.32;100777.72;5039064;27;118051;-47
2020/12/09 03:31:04;;;;;;;1.73;1.35;;;;;;;22.50;30.03;100773.34;5039751;27;114348;-47
2020/12/09 03:33:30;;;;;;;1.30;1.20;;;;;;;22.51;30.00;100783.03;5039329;27;106094;-48
2020/12/09 03:35:56;;;;;;;1.80;1.70;;;;;;;22.51;29.86;100776.88;5038471;27;97233;-48
2020/12/09 03:38:21;;;;;;;1.67;1.38;;;;;;;22.51;30.20;100785.69;5033162;27;96778;-47
2020/12/09 03:40:47;;;;;;;1.77;1.52;;;;;;;22.51;29.97;100785.69;5039508;27;102013;-48
2020/12/09 03:43:12;;;;;;;1.55;1.30;;;;;;;22.50;30.28;100789.28;5040616;27;97474;-47
2020/12/09 03:45:38;;;;;;;1.60;1.50;;;;;;;22.51;30.13;100787.50;5035138;27;126389;-48
2020/12/09 03:48:03;;;;;;;1.88;1.30;;;;;;;22.51;30.12;100798.13;5022109;27;99860;-47
2020/12/09 03:50:29;;;;;;;1.60;1.50;;;;;;;22.51;29.77;100790.16;5039004;27;96812;-47
2020/12/09 03:52:54;;;;;;;1.40;1.30;;;;;;;22.49;29.91;100798.19;5036799;27;125721;-47
2020/12/09 03:55:20;;;;;;;1.40;1.30;;;;;;;22.50;30.00;100794.63;5033902;27;107034;-47
2020/12/09 03:57:47;;;;;;;1.45;1.25;;;;;;;22.50;30.34;100789.28;5043137;27;96888;-48
2020/12/09 04:00:15;;;;;;;1.85;1.58;;;;;;;22.49;30.07;100792.88;5068572;22;96927;-91
2020/12/09 04:02:43;;;;;;;1.58;1.48;;;;;;;22.49;30.04;100792.00;5019974;27;99089;-91
2020/12/09 04:05:14;;;;;;;1.40;1.30;;;;;;;22.49;30.23;100798.19;5013509;27;99530;-91
2020/12/09 04:07:45;;;;;;;1.45;1.35;;;;;;;22.50;30.07;100791.97;5020207;27;96677;-91
2020/12/09 04:10:11;;;;;;;1.50;1.40;;;;;;;22.50;30.29;100791.09;5003308;27;96630;-91
2020/12/09 04:12:36;;;;;;;1.70;1.40;;;;;;;22.51;30.20;100800.78;5012608;28;99933;-91
2020/12/09 04:15:05;;;;;;;1.40;1.27;;;;;;;22.51;30.07;100795.47;5025707;28;99004;-91
2020/12/09 04:17:30;;;;;;;1.35;1.25;;;;;;;22.50;30.10;100797.28;5002698;27;97062;-91
2020/12/09 04:19:56;;;;;;;1.50;1.33;;;;;;;22.50;30.09;100789.28;4997546;27;96769;-91
2020/12/09 04:22:24;;;;;;;2.17;1.55;;;;;;;22.51;30.15;100792.81;5000345;27;99140;-91
2020/12/09 04:24:49;;;;;;;1.80;1.55;;;;;;;22.51;30.31;100801.66;5013113;27;100420;-91
2020/12/09 04:27:15;;;;;;;1.75;1.35;;;;;;;22.50;30.08;100802.59;4998361;27;97134;-91
2020/12/09 04:29:40;;;;;;;1.45;1.30;;;;;;;22.51;30.13;100800.78;5018090;27;96846;-91
2020/12/09 04:32:06;;;;;;;1.33;1.15;;;;;;;22.50;30.12;100807.03;5036556;27;99212;-91
2020/12/09 04:34:34;;;;;;;1.60;1.38;;;;;;;22.51;30.08;100812.28;5011834;27;99381;-91
2020/12/09 04:37:00;;;;;;;1.60;1.45;;;;;;;22.50;30.14;100810.56;4996310;27;96538;-91
2020/12/09 04:39:26;;;;;;;1.80;1.60;;;;;;;22.51;30.02;100812.28;5018815;27;98315;-91
2020/12/09 04:41:52;;;;;;;1.70;1.50;;;;;;;22.51;29.89;100814.06;5017337;27;100336;-91
2020/12/09 04:44:17;;;;;;;1.65;1.50;;;;;;;22.51;30.01;100812.28;4995280;27;100511;-91
2020/12/09 04:46:47;;;;;;;1.60;1.35;;;;;;;22.51;30.03;100812.28;4997273;27;96721;-91
2020/12/09 04:49:19;;;;;;;2.03;1.60;;;;;;;22.51;30.00;100814.94;4997088;28;96885;-91
2020/12/09 04:52:16;;;;;;;1.80;1.70;;;;;;;22.50;30.16;100804.38;4999269;27;100364;-91
2020/12/09 04:54:45;;;;;;;1.70;1.50;;;;;;;22.50;30.00;100815.03;5031026;27;99095;-91
2020/12/09 04:57:36;;;;;;;1.80;1.70;;;;;;;22.49;30.00;100816.78;4995110;27;96748;-91
2020/12/09 05:00:05;;;;;;;1.50;1.40;;;;;;;22.48;30.27;100823.03;5049603;27;96779;-91
2020/12/09 05:02:40;;;;;;;1.67;1.48;;;;;;;22.50;30.17;100823.00;5011530;27;100256;-91
2020/12/09 05:05:06;;;;;;;1.60;1.50;;;;;;;22.48;30.29;100833.69;5028858;27;100120;-91
2020/12/09 05:07:35;;;;;;;1.95;1.73;;;;;;;22.50;30.06;100830.97;4995538;27;96683;-91
2020/12/09 05:10:00;;;;;;;1.95;1.80;;;;;;;22.50;30.01;100831.81;4993309;27;96750;-91
2020/12/09 05:12:26;;;;;;;2.20;2.00;;;;;;;22.49;30.09;100834.53;5025201;27;100203;-91
2020/12/09 05:14:52;;;;;;;2.03;1.70;;;;;;;22.50;29.94;100836.28;4997702;27;100089;-91
2020/12/09 05:17:21;;;;;;;1.58;1.48;;;;;;;22.50;30.16;100837.13;4999960;27;96877;-91
2020/12/09 05:19:49;;;;;;;2.10;1.90;;;;;;;22.50;30.20;100838.94;5011710;27;96969;-91
2020/12/09 05:22:20;;;;;;;1.70;1.55;;;;;;;22.50;30.08;100845.13;4998973;27;100341;-91
2020/12/09 05:24:45;;;;;;;2.35;2.08;;;;;;;22.50;29.88;100836.28;5025953;27;99267;-91
2020/12/09 05:27:12;;;;;;;1.95;1.77;;;;;;;22.51;30.09;100845.97;5002437;27;96745;-91
2020/12/09 05:29:47;;;;;;;2.10;1.90;;;;;;;22.50;29.96;100847.78;5015130;27;96731;-91
2020/12/09 05:32:15;;;;;;;2.00;1.80;;;;;;;22.50;30.05;100847.78;5029278;27;99490;-91
2020/12/09 05:34:41;;;;;;;2.25;2.00;;;;;;;22.50;29.88;100852.22;5023197;27;99094;-91
2020/12/09 05:37:17;;;;;;;1.88;1.67;;;;;;;22.51;30.18;100861.91;5010963;27;96889;-91
2020/12/09 05:39:50;;;;;;;1.70;1.60;;;;;;;22.50;29.92;100863.72;5028660;27;96955;-91
2020/12/09 05:42:17;;;;;;;1.80;1.70;;;;;;;22.50;29.92;100868.19;5014824;27;100436;-91
2020/12/09 05:48:23;;;;;;;2.05;1.85;;;;;;;22.47;29.79;100869.13;5052197;27;96757;-91
2020/12/09 05:50:53;;;;;;;2.60;2.40;;;;;;;22.48;29.96;100877.97;5010152;27;98371;-91
2020/12/09 05:53:29;;;;;;;2.20;1.85;;;;;;;22.47;29.95;100879.78;5033123;27;100310;-91
2020/12/09 05:56:16;;;;;;;2.95;2.75;;;;;;;22.46;30.15;100883.38;5013835;27;100064;-91
2020/12/09 05:58:48;;;;;;;2.15;1.95;;;;;;;22.46;30.20;100886.03;5027788;27;96632;-91
2020/12/09 06:01:17;;;;;;;2.08;1.88;;;;;;;22.46;30.28;100877.16;5010411;27;96710;-91
2020/12/09 06:03:50;;;;;;;2.20;2.00;;;;;;;22.47;30.11;100879.78;5025412;27;99181;-91
2020/12/09 06:06:22;;;;;;;2.20;2.00;;;;;;;22.47;30.13;100873.59;5028844;27;99512;-91
2020/12/09 06:08:49;;;;;;;2.35;2.15;;;;;;;22.48;29.91;100872.66;5035486;27;96652;-91
2020/12/09 06:11:25;;;;;;;2.05;1.85;;;;;;;22.46;29.84;100871.84;5027863;27;96992;-91
2020/12/09 06:14:31;;;;;;;1.90;1.80;;;;;;;22.46;30.00;100859.44;5000158;27;100724;-91
2020/12/09 06:16:56;;;;;;;2.22;2.00;;;;;;;22.46;30.01;100859.44;5029968;27;99794;-91
2020/12/09 06:19:28;;;;;;;2.17;1.83;;;;;;;22.46;30.02;100862.09;5035983;27;96634;-91
2020/12/09 06:21:59;;;;;;;2.00;1.90;;;;;;;22.46;30.01;100867.41;4999503;27;97014;-91
2020/12/09 06:24:27;;;;;;;2.28;2.08;;;;;;;22.47;29.94;100874.44;5017125;27;99568;-91
2020/12/09 06:26:56;;;;;;;2.13;1.92;;;;;;;22.47;30.00;100877.13;5032898;27;99455;-91
2020/12/09 06:29:31;;;;;;;1.77;1.67;;;;;;;22.46;30.01;100878.06;4996581;27;96850;-91
2020/12/09 06:32:04;;;;;;;2.03;1.83;;;;;;;22.47;29.84;100879.78;4998461;27;96857;-90
2020/12/09 06:34:30;;;;;;;2.00;1.80;;;;;;;22.48;29.84;100878.84;5011636;27;99009;-91
2020/12/09 06:37:14;;;;;;;1.98;1.77;;;;;;;22.48;29.84;100885.94;5018316;27;99349;-91
2020/12/09 06:39:42;;;;;;;2.20;2.00;;;;;;;22.47;29.90;100877.13;5021115;27;96828;-91
2020/12/09 06:42:09;;;;;;;2.10;1.90;;;;;;;22.48;29.72;100880.63;5031775;27;96575;-91
2020/12/09 06:44:47;;;;;;;2.10;1.90;;;;;;;22.47;29.81;100879.78;5022929;28;100860;-91
2020/12/09 06:47:18;;;;;;;2.35;2.15;;;;;;;22.48;29.81;100883.28;5037546;27;99690;-91
2020/12/09 06:49:46;;;;;;;2.13;1.92;;;;;;;22.47;29.85;100885.09;5040961;27;96996;-91
2020/12/09 06:52:11;;;;;;;2.30;2.10;;;;;;;22.49;29.82;100891.22;5020895;27;96815;-91
2020/12/09 06:54:39;;;;;;;2.03;1.83;;;;;;;22.48;30.06;100891.25;5027210;27;101145;-91
2020/12/09 06:57:33;;;;;;;2.20;2.00;;;;;;;22.48;29.71;100896.56;5014818;27;100019;-91
2020/12/09 07:00:11;;;;;;;2.30;2.10;;;;;;;22.47;29.82;100902.84;5031535;27;96840;-91
2020/12/09 07:02:37;;;;;;;2.50;2.30;;;;;;;22.46;30.08;100904.63;5059711;27;96982;-91
2020/12/09 07:05:39;;;;;;;2.30;2.10;;;;;;;22.45;29.75;100904.69;5028623;27;98558;-92
2020/12/09 07:08:08;;;;;;;1.92;1.80;;;;;;;22.46;30.07;100909.06;5009594;28;98952;-91
2020/12/09 07:10:33;;;;;;;2.30;2.10;;;;;;;22.46;29.83;100915.25;5024606;27;96991;-91
2020/12/09 07:13:01;;;;;;;2.63;2.13;;;;;;;22.46;29.95;100923.22;5001388;27;96700;-92
2020/12/09 07:15:27;;;;;;;2.72;2.28;;;;;;;22.46;29.97;100914.38;5027915;27;98921;-91
2020/12/09 07:17:53;;;;;;;2.20;2.00;;;;;;;22.47;30.00;100916.97;5032234;27;98917;-91
2020/12/09 07:20:18;;;;;;;2.47;2.28;;;;;;;22.47;29.88;100921.44;5014384;27;96835;-91
2020/12/09 07:22:44;;;;;;;2.67;2.38;;;;;;;22.45;30.08;100918.81;4998470;27;97296;-91
2020/12/09 07:25:09;;;;;;;2.20;2.00;;;;;;;22.46;29.88;100917.03;5018037;27;99428;-91
2020/12/09 07:27:45;;;;;;;2.20;2.00;;;;;;;22.46;29.63;100923.22;5006241;27;118844;-92
2020/12/09 07:30:14;;;;;;;2.60;2.40;;;;;;;22.46;29.73;100925.91;5031471;27;97092;-92
2020/12/09 07:32:42;;;;;;;2.70;2.25;;;;;;;22.47;29.87;100932.06;5021862;27;97001;-92
2020/12/09 07:35:12;;;;;;;3.30;2.63;;;;;;;22.46;29.52;100923.22;5012702;27;100566;-92
2020/12/09 07:37:43;;;;;;;3.35;2.28;;;;;;;22.47;29.68;100916.97;4997664;27;99195;-92
2020/12/09 07:40:32;;;;;;;3.30;2.47;;;;;;;22.48;30.08;100923.16;5003360;27;96791;-92
2020/12/09 07:43:05;;;;;;;3.10;2.50;;;;;;;22.48;29.91;100932.03;5002085;27;96664;-93
2020/12/09 07:45:33;;;;;;;3.80;2.67;;;;;;;22.48;29.71;100937.34;5049939;27;100402;-93
2020/12/09 07:48:04;;;;;;;5.97;2.72;;;;;;;22.48;29.89;100942.66;5003450;27;98549;-95
2020/12/09 07:50:35;;;;;;;2.95;2.30;;;;;;;22.48;29.68;100934.69;5022291;27;96421;-92
2020/12/09 07:53:06;;;;;;;3.85;2.65;;;;;;;22.49;29.71;100936.41;4999516;27;96849;-92
2020/12/09 07:55:32;;;;;;;4.88;2.80;;;;;;;22.50;29.93;100947.91;5012729;27;100032;-91
2020/12/09 07:58:05;;;;;;;3.25;2.55;;;;;;;22.51;29.90;100946.97;4995806;27;99182;-92
2020/12/09 08:00:37;;;;;;;4.63;3.85;;;;;;;22.50;29.90;100943.47;5030568;27;97627;-93
2020/12/09 08:03:03;;;;;;;16.10;14.43;;;;;;;22.42;28.31;100942.84;5032762;27;96574;-92
2020/12/09 08:05:33;;;;;;;15.43;13.65;;;;;;;22.25;28.03;100944.28;5016977;27;100137;-91
2020/12/09 08:08:00;;;;;;;13.35;11.75;;;;;;;22.19;28.04;100946.28;5003507;27;99013;-91
2020/12/09 08:10:32;;;;;;;12.80;10.68;;;;;;;22.18;28.32;100947.22;5010478;28;97013;-92
2020/12/09 08:13:24;;;;;;;10.18;9.18;;;;;;;22.16;28.42;100936.63;5003122;27;97445;-91
2020/12/09 08:16:00;;;;;;;9.80;8.40;;;;;;;22.19;28.32;100939.19;5030525;27;100300;-92
2020/12/09 08:18:29;;;;;;;11.40;8.38;;;;;;;22.21;28.21;100944.41;5010504;27;98657;-91
2020/12/09 08:20:59;;;;;;;8.85;7.80;;;;;;;22.21;28.29;100944.41;5004927;27;96647;-91
2020/12/09 08:23:41;;;;;;;8.57;7.45;;;;;;;22.21;28.20;100950.63;5005024;27;96857;-91
2020/12/09 08:26:07;;;;;;;7.97;7.13;;;;;;;22.23;28.25;100956.75;5015082;27;99221;-91
2020/12/09 08:28:33;;;;;;;8.13;6.72;;;;;;;22.24;28.72;100957.59;5014187;27;100216;-91
2020/12/09 08:30:59;;;;;;;7.10;6.40;;;;;;;22.25;28.43;100954.91;5014376;27;97014;-91
2020/12/09 08:33:30;;;;;;;7.80;6.47;;;;;;;22.25;28.38;100956.69;5015514;27;96995;-92
2020/12/09 08:35:59;;;;;;;7.22;6.43;;;;;;;22.27;28.66;100962.84;5035099;27;99597;-91
2020/12/09 08:38:48;;;;;;;7.00;5.70;;;;;;;22.26;28.50;100950.44;5035722;27;100152;-92
2020/12/09 08:41:26;;;;;;;6.35;5.70;;;;;;;22.26;28.69;100939.81;5036565;27;96827;-91
2020/12/09 08:43:55;;;;;;;7.57;6.20;;;;;;;22.27;28.36;100938.94;5018283;27;96954;-91
2020/12/09 08:46:24;;;;;;;6.40;5.68;;;;;;;22.29;28.60;100941.56;5004026;27;100564;-92
2020/12/09 08:48:50;;;;;;;6.32;5.63;;;;;;;22.28;28.14;100935.38;5015258;27;100028;-91
2020/12/09 08:51:29;;;;;;;6.05;5.43;;;;;;;22.29;28.44;100944.22;5004314;27;97891;-91
2020/12/09 08:53:55;;;;;;;6.03;5.43;;;;;;;22.30;28.37;100951.25;5033679;27;98129;-92
2020/12/09 08:56:25;;;;;;;6.82;5.18;;;;;;;22.31;28.30;100947.69;4999380;27;99478;-91
2020/12/09 08:58:50;;;;;;;6.28;5.57;;;;;;;22.31;28.28;100939.72;5001736;27;99235;-91
2020/12/09 09:01:19;;;;;;;5.95;5.35;;;;;;;22.30;28.17;100941.50;5000072;27;97280;-91
2020/12/09 09:03:51;;;;;;;6.72;5.22;;;;;;;22.31;28.42;100943.22;4998805;27;97370;-92
2020/12/09 09:06:17;;;;;;;5.80;5.13;;;;;;;22.30;28.56;100936.19;5020044;27;100330;-91
2020/12/09 09:08:45;;;;;;;5.20;4.70;;;;;;;22.32;28.36;100936.16;4996383;27;99063;-91
2020/12/09 09:11:13;;;;;;;5.68;5.05;;;;;;;22.32;28.67;100922.84;5035953;27;96783;-91
2020/12/09 09:13:39;;;;;;;5.03;4.53;;;;;;;22.31;28.38;100929.06;4995828;27;96645;-91
2020/12/09 09:16:08;;;;;;;6.47;5.72;;;;;;;22.30;28.53;100927.31;5009766;27;99490;-91
2020/12/09 09:18:37;;;;;;;5.90;4.88;;;;;;;22.31;28.59;100931.75;5000522;27;101287;-91
2020/12/09 09:21:03;;;;;;;5.53;4.85;;;;;;;22.31;28.61;100926.41;5025511;27;96710;-91
2020/12/09 09:23:31;;;;;;;4.95;4.45;;;;;;;22.32;28.38;100941.47;4992134;27;96837;-91
2020/12/09 09:25:56;;;;;;;5.70;5.10;;;;;;;22.31;28.34;100948.53;4998895;27;99124;-91
2020/12/09 09:28:22;;;;;;;5.50;5.00;;;;;;;22.31;28.43;100953.00;5029562;27;99959;-90
2020/12/09 09:30:55;;;;;;;5.93;5.32;;;;;;;22.31;28.55;100953.00;4998725;27;115560;-91
2020/12/09 09:33:24;;;;;;;6.72;5.05;;;;;;;22.29;28.63;100949.53;5027841;27;97410;-90
2020/12/09 09:35:50;;;;;;;7.80;5.65;;;;;;;22.30;28.42;100946.81;5017967;27;99978;-91
2020/12/09 09:38:15;;;;;;;5.18;4.65;;;;;;;22.31;28.46;100948.53;5024424;28;98849;-91
2020/12/09 09:40:41;;;;;;;6.13;5.13;;;;;;;22.29;28.24;100947.72;5018747;27;108867;-91
2020/12/09 09:43:09;;;;;;;5.45;4.45;;;;;;;22.31;28.35;100959.16;5017896;28;107926;-91
2020/12/09 09:45:34;;;;;;;6.50;5.15;;;;;;;22.30;28.31;100937.97;5030375;27;99416;-90
2020/12/09 09:47:59;;;;;;;7.15;5.30;;;;;;;22.31;28.58;100953.84;5043155;27;98482;-91
2020/12/09 09:50:25;;;;;;;6.75;5.45;;;;;;;22.30;28.58;100957.44;5038221;27;97468;-91
2020/12/09 09:52:50;;;;;;;6.07;5.15;;;;;;;22.31;28.29;100953.84;5009090;27;116215;-91
2020/12/09 09:55:16;;;;;;;6.43;5.32;;;;;;;22.30;28.56;100952.13;5005638;27;100557;-91
2020/12/09 09:57:41;;;;;;;7.50;5.82;;;;;;;22.31;28.60;100955.66;5016467;27;100385;-90
2020/12/09 10:00:07;;;;;;;8.77;7.35;;;;;;;22.31;28.53;100953.00;5060264;22;98246;-44
2020/12/09 10:02:37;;;;;;;6.50;5.07;;;;;;;22.30;28.69;100951.25;5013515;28;96900;-44
2020/12/09 10:05:03;;;;;;;6.03;5.07;;;;;;;22.30;28.37;100949.47;5016516;28;97507;-44
2020/12/09 10:07:28;;;;;;;6.63;5.07;;;;;;;22.30;28.42;100945.94;5014329;28;97223;-44
2020/12/09 10:09:54;;;;;;;6.07;4.95;;;;;;;22.29;28.37;100939.75;5013654;28;117907;-44
2020/12/09 10:12:19;;;;;;;7.82;5.10;;;;;;;22.29;28.76;100944.22;5013322;28;97250;-45
2020/12/09 10:14:45;;;;;;;5.45;4.78;;;;;;;22.27;28.74;100948.72;5014834;28;126971;-45
2020/12/09 10:17:10;;;;;;;6.53;4.90;;;;;;;22.28;28.73;100953.09;5015766;28;97631;-44
2020/12/09 10:19:36;;;;;;;5.80;5.15;;;;;;;22.28;28.76;100958.41;5015121;28;104859;-44
2020/12/09 10:22:01;;;;;;;5.40;4.47;;;;;;;22.26;28.76;100947.78;5013327;28;111299;-44
2020/12/09 10:24:27;;;;;;;6.70;5.15;;;;;;;22.27;28.49;100956.69;5013776;28;111379;-45
2020/12/09 10:26:53;;;;;;;5.63;5.00;;;;;;;22.27;28.49;100959.34;5014687;28;97274;-44
2020/12/09 10:29:18;;;;;;;6.53;5.13;;;;;;;22.27;28.36;100960.19;5015156;28;117198;-44
2020/12/09 10:31:45;;;;;;;5.95;5.25;;;;;;;22.27;28.79;100964.66;4997165;28;101715;-44
2020/12/09 10:34:12;;;;;;;5.93;4.97;;;;;;;22.25;28.74;100965.53;5013773;28;108356;-44
2020/12/09 10:36:38;;;;;;;5.35;4.85;;;;;;;22.25;28.35;100964.69;5014276;28;121189;-44
2020/12/09 10:39:04;;;;;;;5.75;5.00;;;;;;;22.25;28.81;100957.56;5014983;28;96782;-44
2020/12/09 10:41:30;;;;;;;5.32;4.82;;;;;;;22.25;28.74;100962.00;5013880;28;96746;-44
2020/12/09 10:43:55;;;;;;;5.22;4.60;;;;;;;22.24;28.64;100946.97;5015797;28;97533;-44
2020/12/09 10:46:21;;;;;;;5.45;4.95;;;;;;;22.24;28.54;100954.94;5014990;28;97475;-44
2020/12/09 10:48:47;;;;;;;5.63;4.80;;;;;;;22.24;28.57;100952.28;5013735;28;96853;-44
2020/12/09 10:51:14;;;;;;;5.32;4.82;;;;;;;22.23;28.43;100954.09;5016280;28;96734;-44
2020/12/09 10:53:39;;;;;;;5.70;4.95;;;;;;;22.23;28.78;100951.44;5014384;28;109430;-44
2020/12/09 10:56:04;;;;;;;5.57;4.57;;;;;;;22.24;28.76;100952.28;5014391;28;119033;-45
2020/12/09 10:58:30;;;;;;;5.30;4.53;;;;;;;22.23;28.94;100946.13;5015219;28;97015;-44
2020/12/09 11:00:55;;;;;;;5.60;4.75;;;;;;;22.25;28.87;100948.72;5014938;28;98264;-44
2020/12/09 11:03:22;;;;;;;5.20;4.70;;;;;;;22.23;28.94;100948.78;5015377;28;98859;-44
2020/12/09 11:05:47;;;;;;;5.35;4.55;;;;;;;22.24;28.62;100945.19;5013786;28;118005;-44
2020/12/09 11:08:14;;;;;;;4.68;4.15;;;;;;;22.24;28.52;100945.19;5014367;28;97009;-44
2020/12/09 11:10:40;;;;;;;5.05;4.55;;;;;;;22.23;28.77;100948.78;5014510;28;96704;-44
2020/12/09 11:13:05;;;;;;;4.88;4.38;;;;;;;22.24;28.76;100937.22;5012961;28;100346;-44
2020/12/09 11:15:31;;;;;;;5.32;4.45;;;;;;;22.23;28.50;100930.19;5013710;28;126652;-44
2020/12/09 11:17:56;;;;;;;4.53;4.13;;;;;;;22.23;28.62;100938.16;5015022;28;96858;-44
2020/12/09 11:20:22;;;;;;;6.10;4.80;;;;;;;22.24;28.52;100936.34;4996565;28;116668;-44
2020/12/09 11:22:47;;;;;;;6.20;4.75;;;;;;;22.23;28.84;100938.16;5011967;28;107972;-44
2020/12/09 11:25:13;;;;;;;5.47;4.80;;;;;;;22.24;28.72;100944.31;4999999;28;111530;-45
2020/12/09 11:27:38;;;;;;;28.50;21.92;;;;;;;22.19;28.21;100941.84;5013054;28;106699;-45
2020/12/09 11:30:04;;;;;;;30.13;24.67;;;;;;;22.09;27.61;100951.03;5014752;28;97881;-46